Terminal Aerodrome Forecast
Issued by NWS Sioux Falls, SD

Home | Current Version | Previous Version | Text Only | Print | Product List | Glossary On
Versions: 1 2 3 4 5 6 7 8 9 10 11 12
000
FTUS43 KFSD 221120
TAFFSD
TAF
KFSD 221120Z 2212/2312 03012KT P6SM BKN110
     FM221300 04012KT P6SM BKN080
     FM221600 05010KT P6SM BKN110
     FM222000 04007KT P6SM VCSH BKN060
     FM222300 35007KT P6SM SCT140
     FM230200 31006KT P6SM SCT250=

USA.gov is the U.S. government's official web portal to all federal, state and local government web resources and services.